Terminal Aerodrome Forecast
Issued by NWS

Home | Current Version | Previous Version | Text Only | Print | Product List | Glossary Off
Versions: 1 2 3 4 5 6 7 8 9 10 11 12 13 14 15 16 17 18 19

000
FTUS43 KICT 011500 AAB
TAFRSL
TAF AMD
KRSL 011541Z 0116/0212 03008KT 4SM BR BKN004
     FM011800 05008KT P6SM SCT020
     FM020000 05006KT P6SM VCTS BKN060CB=

USA.gov is the U.S. government's official web portal to all federal, state and local government web resources and services.